Time;durP1;ratioP1;P1;durP2;ratioP2;P2;SDS_P1;SDS_P2;PMS_P1;PMS_P2;Temp;Humidity;BMP_temperature;BMP_pressure;BME280_temperature;BME280_humidity;BME280_pressure;Samples;Min_cycle;Max_cycle;Signal;HPM_P1;HPM_P2
2021/10/30 00:00:38;;;;;;;0.20;0.20;;;;;;;;;;5925247;24;20460;-90
2021/10/30 00:03:03;;;;;;;0.10;0.10;;;;;;;;;;5925252;24;20044;-90
2021/10/30 00:05:29;;;;;;;0.10;0.10;;;;;;;;;;5947869;24;20052;-90
2021/10/30 00:07:55;;;;;;;0.10;0.10;;;;;;;;;;5925262;24;20017;-90
2021/10/30 00:10:21;;;;;;;0.10;0.10;;;;;;;;;;5925094;24;20023;-91
2021/10/30 00:12:47;;;;;;;0.10;0.10;;;;;;;;;;5925248;24;20021;-89
2021/10/30 00:15:13;;;;;;;4.63;1.13;;;;;;;;;;5925321;24;20040;-89
2021/10/30 00:17:39;;;;;;;0.10;0.10;;;;;;;;;;5925181;24;20347;-90
2021/10/30 00:20:05;;;;;;;0.10;0.10;;;;;;;;;;5948373;24;20345;-91
2021/10/30 00:22:31;;;;;;;0.10;0.10;;;;;;;;;;5925028;24;20013;-91
2021/10/30 00:24:57;;;;;;;0.10;0.10;;;;;;;;;;5924673;24;20100;-90
2021/10/30 00:27:23;;;;;;;0.10;0.10;;;;;;;;;;5948172;24;20042;-90
2021/10/30 00:29:49;;;;;;;0.10;0.10;;;;;;;;;;5948084;24;20025;-90
2021/10/30 00:32:15;;;;;;;0.10;0.10;;;;;;;;;;5948354;24;20096;-90
2021/10/30 00:34:41;;;;;;;0.20;0.20;;;;;;;;;;5925540;24;20025;-90
2021/10/30 00:37:08;;;;;;;0.30;0.30;;;;;;;;;;5925192;24;20466;-90
2021/10/30 00:39:34;;;;;;;0.20;0.20;;;;;;;;;;5948080;24;20028;-90
2021/10/30 00:42:00;;;;;;;0.10;0.10;;;;;;;;;;5925203;24;20412;-91
2021/10/30 00:44:26;;;;;;;0.10;0.10;;;;;;;;;;5925411;24;20013;-91
2021/10/30 00:46:52;;;;;;;0.10;0.10;;;;;;;;;;5925515;24;20021;-91
2021/10/30 00:49:19;;;;;;;0.20;0.20;;;;;;;;;;5947826;24;20025;-89
2021/10/30 00:51:45;;;;;;;0.10;0.10;;;;;;;;;;5924878;24;20097;-91
2021/10/30 00:54:12;;;;;;;0.10;0.10;;;;;;;;;;5925174;24;20017;-90
2021/10/30 00:56:38;;;;;;;0.10;0.10;;;;;;;;;;5924685;24;20021;-90
2021/10/30 00:59:04;;;;;;;0.10;0.10;;;;;;;;;;5947684;24;20028;-90
2021/10/30 01:01:30;;;;;;;0.10;0.10;;;;;;;;;;5947707;24;20017;-90
2021/10/30 01:03:57;;;;;;;0.10;0.10;;;;;;;;;;5924736;24;20473;-90
2021/10/30 01:06:23;;;;;;;0.10;0.10;;;;;;;;;;5947753;24;20049;-91
2021/10/30 01:08:49;;;;;;;0.10;0.10;;;;;;;;;;5924770;24;20056;-90
2021/10/30 01:11:15;;;;;;;0.10;0.10;;;;;;;;;;5925027;24;20055;-90
2021/10/30 01:13:41;;;;;;;0.10;0.10;;;;;;;;;;5924887;24;20017;-90
2021/10/30 01:16:07;;;;;;;0.17;0.17;;;;;;;;;;5924594;24;20456;-91
2021/10/30 01:18:33;;;;;;;0.10;0.10;;;;;;;;;;5947616;24;20028;-91
2021/10/30 01:20:59;;;;;;;0.20;0.20;;;;;;;;;;5924983;24;20013;-90
2021/10/30 01:23:25;;;;;;;0.13;0.13;;;;;;;;;;5924773;24;20060;-91
2021/10/30 01:25:56;;;;;;;0.25;0.25;;;;;;;;;;5924878;24;20018;-91
2021/10/30 01:28:22;;;;;;;0.10;0.10;;;;;;;;;;5947827;24;20040;-91
2021/10/30 01:30:48;;;;;;;0.10;0.10;;;;;;;;;;5924770;24;20028;-91
2021/10/30 01:33:14;;;;;;;0.10;0.10;;;;;;;;;;5947913;24;20040;-91
2021/10/30 01:35:43;;;;;;;0.10;0.10;;;;;;;;;;5924766;24;20460;-91
2021/10/30 01:38:10;;;;;;;0.10;0.10;;;;;;;;;;5923952;24;20025;-91
2021/10/30 01:40:39;;;;;;;0.20;0.20;;;;;;;;;;5947555;24;20356;-90
2021/10/30 01:43:05;;;;;;;0.10;0.10;;;;;;;;;;5947621;24;20396;-90
2021/10/30 01:45:32;;;;;;;0.15;0.15;;;;;;;;;;5924647;24;20099;-90
2021/10/30 01:47:58;;;;;;;0.10;0.10;;;;;;;;;;5924578;24;20024;-90
2021/10/30 01:50:24;;;;;;;0.10;0.10;;;;;;;;;;5947237;24;20080;-90
2021/10/30 01:52:50;;;;;;;0.10;0.10;;;;;;;;;;5924942;24;20077;-90
2021/10/30 01:55:16;;;;;;;0.10;0.10;;;;;;;;;;5924726;24;20021;-90
2021/10/30 01:57:42;;;;;;;0.10;0.10;;;;;;;;;;5947595;24;20507;-90
2021/10/30 02:00:09;;;;;;;0.43;0.22;;;;;;;;;;5947630;24;20017;-90
2021/10/30 02:02:35;;;;;;;0.10;0.10;;;;;;;;;;5924671;24;20093;-90
2021/10/30 02:05:01;;;;;;;0.10;0.10;;;;;;;;;;5947433;24;20399;-90
2021/10/30 02:07:27;;;;;;;0.10;0.10;;;;;;;;;;5924664;24;20093;-90
2021/10/30 02:09:53;;;;;;;0.17;0.17;;;;;;;;;;5925817;24;20017;-89
2021/10/30 02:12:19;;;;;;;0.10;0.10;;;;;;;;;;5949256;24;20025;-90
2021/10/30 02:14:45;;;;;;;0.10;0.10;;;;;;;;;;5949234;24;20028;-90
2021/10/30 02:17:11;;;;;;;0.10;0.10;;;;;;;;;;5949207;24;20028;-90
2021/10/30 02:19:37;;;;;;;0.10;0.10;;;;;;;;;;5925961;24;20024;-90
2021/10/30 02:22:04;;;;;;;0.10;0.10;;;;;;;;;;5949143;24;20519;-89
2021/10/30 02:24:30;;;;;;;0.10;0.10;;;;;;;;;;5948887;24;20051;-90
2021/10/30 02:26:56;;;;;;;0.10;0.10;;;;;;;;;;5925997;24;20014;-89
2021/10/30 02:29:22;;;;;;;0.10;0.10;;;;;;;;;;5949321;24;20252;-90
2021/10/30 02:31:48;;;;;;;0.13;0.13;;;;;;;;;;5949306;24;20028;-90
2021/10/30 02:34:14;;;;;;;0.10;0.10;;;;;;;;;;5948926;24;20348;-90
2021/10/30 02:36:40;;;;;;;0.10;0.10;;;;;;;;;;5925923;24;20021;-90
2021/10/30 02:39:06;;;;;;;0.10;0.10;;;;;;;;;;5925949;24;20096;-90
2021/10/30 02:41:32;;;;;;;0.10;0.10;;;;;;;;;;5948921;24;20334;-90
2021/10/30 02:43:58;;;;;;;0.13;0.13;;;;;;;;;;5925878;24;20021;-89
2021/10/30 02:46:24;;;;;;;0.13;0.13;;;;;;;;;;5926127;24;20380;-90
2021/10/30 02:48:49;;;;;;;0.10;0.10;;;;;;;;;;5925850;24;20017;-90
2021/10/30 02:51:15;;;;;;;0.17;0.17;;;;;;;;;;5926194;24;20112;-90
2021/10/30 02:53:41;;;;;;;0.10;0.10;;;;;;;;;;5926466;24;20013;-90
2021/10/30 02:56:07;;;;;;;0.10;0.10;;;;;;;;;;5925692;24;20091;-90
2021/10/30 02:58:33;;;;;;;0.20;0.20;;;;;;;;;;5926015;24;20017;-90
2021/10/30 03:00:59;;;;;;;0.10;0.10;;;;;;;;;;5926019;24;20017;-89
2021/10/30 03:03:25;;;;;;;0.10;0.10;;;;;;;;;;5926050;24;20024;-90
2021/10/30 03:05:51;;;;;;;0.10;0.10;;;;;;;;;;5926202;24;20013;-90
2021/10/30 03:08:17;;;;;;;0.10;0.10;;;;;;;;;;5925914;24;20016;-90
2021/10/30 03:10:43;;;;;;;0.10;0.10;;;;;;;;;;5926209;24;20080;-90
2021/10/30 03:13:10;;;;;;;0.10;0.10;;;;;;;;;;5925980;24;20025;-90
2021/10/30 03:15:36;;;;;;;0.10;0.10;;;;;;;;;;5926008;24;20040;-89
2021/10/30 03:18:02;;;;;;;0.10;0.10;;;;;;;;;;5926087;24;20455;-89
2021/10/30 03:20:28;;;;;;;0.10;0.10;;;;;;;;;;5925381;24;20052;-90
2021/10/30 03:22:54;;;;;;;0.10;0.10;;;;;;;;;;5926114;24;20451;-90
2021/10/30 03:25:20;;;;;;;0.10;0.10;;;;;;;;;;5948591;24;20037;-90
2021/10/30 03:27:46;;;;;;;0.20;0.20;;;;;;;;;;5925736;24;20023;-90
2021/10/30 03:30:12;;;;;;;0.10;0.10;;;;;;;;;;5926041;24;20099;-90
2021/10/30 03:32:38;;;;;;;0.10;0.10;;;;;;;;;;5925894;24;20017;-90
2021/10/30 03:35:04;;;;;;;0.10;0.10;;;;;;;;;;5925794;24;20494;-90
2021/10/30 03:37:33;;;;;;;0.10;0.10;;;;;;;;;;5926103;24;20085;-90
2021/10/30 03:39:59;;;;;;;0.10;0.10;;;;;;;;;;5925621;24;20121;-89
2021/10/30 03:42:25;;;;;;;0.10;0.10;;;;;;;;;;5949148;24;20036;-90
2021/10/30 03:44:51;;;;;;;0.10;0.10;;;;;;;;;;5925632;24;20035;-90
2021/10/30 03:47:17;;;;;;;0.10;0.10;;;;;;;;;;5925991;24;20046;-90
2021/10/30 03:49:44;;;;;;;0.10;0.10;;;;;;;;;;5925380;24;20145;-89
2021/10/30 03:52:09;;;;;;;0.10;0.10;;;;;;;;;;5948371;24;20028;-89
2021/10/30 03:54:35;;;;;;;0.10;0.10;;;;;;;;;;5925338;24;20024;-90
2021/10/30 03:57:02;;;;;;;0.20;0.20;;;;;;;;;;5925291;24;20032;-90
2021/10/30 03:59:28;;;;;;;0.10;0.10;;;;;;;;;;5948511;24;20077;-90
2021/10/30 04:01:54;;;;;;;0.10;0.10;;;;;;;;;;5925185;24;20017;-90
2021/10/30 04:04:20;;;;;;;0.10;0.10;;;;;;;;;;5925064;24;20420;-89
2021/10/30 04:06:46;;;;;;;0.10;0.10;;;;;;;;;;5925173;24;20100;-90
2021/10/30 04:09:12;;;;;;;0.10;0.10;;;;;;;;;;5925577;24;20482;-90
2021/10/30 04:11:38;;;;;;;0.10;0.10;;;;;;;;;;5925663;24;20493;-90
2021/10/30 04:14:04;;;;;;;0.35;0.35;;;;;;;;;;5925469;24;20100;-91
2021/10/30 04:16:30;;;;;;;0.10;0.10;;;;;;;;;;5948612;24;20511;-91
2021/10/30 04:18:58;;;;;;;0.10;0.10;;;;;;;;;;5948642;24;20018;-90
2021/10/30 04:21:24;;;;;;;0.10;0.10;;;;;;;;;;5924963;24;20021;-91
2021/10/30 04:23:50;;;;;;;0.10;0.10;;;;;;;;;;5925311;24;20100;-91
2021/10/30 04:26:16;;;;;;;0.10;0.10;;;;;;;;;;5925305;24;20441;-91
2021/10/30 04:28:42;;;;;;;0.10;0.10;;;;;;;;;;5948592;24;20036;-91
2021/10/30 04:31:10;;;;;;;0.10;0.10;;;;;;;;;;5925784;24;20024;-90
2021/10/30 04:33:41;;;;;;;0.10;0.10;;;;;;;;;;5924805;24;20017;-91
2021/10/30 04:36:14;;;;;;;0.10;0.10;;;;;;;;;;5923982;24;20340;-91
2021/10/30 04:38:40;;;;;;;0.20;0.20;;;;;;;;;;5946684;24;20447;-91
2021/10/30 04:41:06;;;;;;;0.10;0.10;;;;;;;;;;5947919;24;20100;-91
2021/10/30 04:43:32;;;;;;;0.10;0.10;;;;;;;;;;5948279;24;20049;-90
2021/10/30 04:45:58;;;;;;;0.43;0.43;;;;;;;;;;5947976;24;20009;-91
2021/10/30 04:48:24;;;;;;;0.10;0.10;;;;;;;;;;5924951;24;20051;-91
2021/10/30 04:50:50;;;;;;;1.60;0.20;;;;;;;;;;5925271;24;20032;-91
2021/10/30 04:53:16;;;;;;;0.10;0.10;;;;;;;;;;5902205;24;20077;-91
2021/10/30 04:55:42;;;;;;;0.13;0.13;;;;;;;;;;5925111;24;20021;-91
2021/10/30 04:58:08;;;;;;;0.10;0.10;;;;;;;;;;5947990;24;20024;-91
2021/10/30 05:00:34;;;;;;;0.10;0.10;;;;;;;;;;5924821;24;20021;-91
2021/10/30 05:03:00;;;;;;;0.10;0.10;;;;;;;;;;5924956;24;20013;-91
2021/10/30 05:05:26;;;;;;;0.10;0.10;;;;;;;;;;5947730;24;20066;-90
2021/10/30 05:07:52;;;;;;;0.20;0.20;;;;;;;;;;5924405;24;20017;-90
2021/10/30 05:10:18;;;;;;;0.10;0.10;;;;;;;;;;5924744;24;20017;-90
2021/10/30 05:12:44;;;;;;;0.10;0.10;;;;;;;;;;5947612;24;20028;-90
2021/10/30 05:15:10;;;;;;;0.10;0.10;;;;;;;;;;5924465;24;20028;-90
2021/10/30 05:17:36;;;;;;;0.10;0.10;;;;;;;;;;5924592;24;20443;-90
2021/10/30 05:20:03;;;;;;;0.47;0.40;;;;;;;;;;5924416;24;20049;-90
2021/10/30 05:22:29;;;;;;;0.10;0.10;;;;;;;;;;5947295;24;20028;-90
2021/10/30 05:24:55;;;;;;;0.52;0.32;;;;;;;;;;5924411;24;20049;-90
2021/10/30 05:27:21;;;;;;;0.20;0.20;;;;;;;;;;5947460;24;20041;-90
2021/10/30 05:29:48;;;;;;;0.10;0.10;;;;;;;;;;5925124;24;20047;-90
2021/10/30 05:32:14;;;;;;;0.10;0.10;;;;;;;;;;5947632;24;20056;-90
2021/10/30 05:34:40;;;;;;;0.20;0.20;;;;;;;;;;5924638;24;20017;-90
2021/10/30 05:37:06;;;;;;;0.10;0.10;;;;;;;;;;5924849;24;20452;-90
2021/10/30 05:39:32;;;;;;;0.10;0.10;;;;;;;;;;5947597;24;20471;-91
2021/10/30 05:41:58;;;;;;;0.15;0.15;;;;;;;;;;5947711;24;20017;-90
2021/10/30 05:44:24;;;;;;;0.20;0.20;;;;;;;;;;5925625;24;20095;-90
2021/10/30 05:46:50;;;;;;;0.20;0.20;;;;;;;;;;5926368;24;20309;-90
2021/10/30 05:49:17;;;;;;;0.10;0.10;;;;;;;;;;5926351;24;20060;-91
2021/10/30 05:51:43;;;;;;;0.10;0.10;;;;;;;;;;5926156;24;20100;-90
2021/10/30 05:54:09;;;;;;;0.20;0.20;;;;;;;;;;5926424;24;20079;-90
2021/10/30 05:56:35;;;;;;;0.30;0.20;;;;;;;;;;5949333;24;20017;-89
2021/10/30 05:59:01;;;;;;;0.28;0.28;;;;;;;;;;5926506;24;20064;-89
2021/10/30 06:01:28;;;;;;;0.10;0.10;;;;;;;;;;5949284;24;20023;-90
2021/10/30 06:03:54;;;;;;;0.10;0.10;;;;;;;;;;5949179;24;20017;-90
2021/10/30 06:06:20;;;;;;;0.10;0.10;;;;;;;;;;5926730;24;20099;-91
2021/10/30 06:08:47;;;;;;;0.15;0.15;;;;;;;;;;5949844;24;20405;-91
2021/10/30 06:11:13;;;;;;;0.38;0.38;;;;;;;;;;5949751;24;20103;-90
2021/10/30 06:13:38;;;;;;;0.10;0.10;;;;;;;;;;5926975;24;20463;-92
2021/10/30 06:16:05;;;;;;;0.10;0.10;;;;;;;;;;5926573;24;20340;-90
2021/10/30 06:18:31;;;;;;;0.10;0.10;;;;;;;;;;5949303;24;20108;-91
2021/10/30 06:20:57;;;;;;;0.10;0.10;;;;;;;;;;5949488;24;20021;-92
2021/10/30 06:23:23;;;;;;;0.20;0.20;;;;;;;;;;5926789;24;20017;-92
2021/10/30 06:25:50;;;;;;;0.10;0.10;;;;;;;;;;5926558;24;20065;-91
2021/10/30 06:28:16;;;;;;;0.10;0.10;;;;;;;;;;5925936;24;20412;-92
2021/10/30 06:30:43;;;;;;;0.10;0.10;;;;;;;;;;5926514;24;20056;-94
2021/10/30 06:33:09;;;;;;;0.10;0.10;;;;;;;;;;5926182;24;20085;-87
2021/10/30 06:35:35;;;;;;;0.75;0.75;;;;;;;;;;5949137;24;20016;-88
2021/10/30 06:38:01;;;;;;;0.10;0.10;;;;;;;;;;5950023;24;20029;-89
2021/10/30 06:40:27;;;;;;;0.10;0.10;;;;;;;;;;5925998;24;20025;-90
2021/10/30 06:42:53;;;;;;;0.20;0.20;;;;;;;;;;5926222;24;20092;-91
2021/10/30 06:45:19;;;;;;;0.10;0.10;;;;;;;;;;5949373;24;20017;-92
2021/10/30 06:47:45;;;;;;;0.10;0.10;;;;;;;;;;5950248;24;20432;-94
2021/10/30 06:50:20;;;;;;;0.52;0.20;;;;;;;;;;5949323;24;20021;-89
2021/10/30 06:52:47;;;;;;;0.17;0.17;;;;;;;;;;5947242;24;20082;-90
2021/10/30 06:55:13;;;;;;;0.10;0.10;;;;;;;;;;5948061;24;20053;-89
2021/10/30 06:57:39;;;;;;;0.38;0.38;;;;;;;;;;5948687;24;20482;-89
2021/10/30 07:00:06;;;;;;;0.10;0.10;;;;;;;;;;5925729;24;20271;-91
2021/10/30 07:02:32;;;;;;;0.10;0.10;;;;;;;;;;5948867;24;20020;-89
2021/10/30 07:04:59;;;;;;;0.10;0.10;;;;;;;;;;5925698;24;20013;-90
2021/10/30 07:07:25;;;;;;;0.20;0.20;;;;;;;;;;5948845;24;20020;-89
2021/10/30 07:09:54;;;;;;;0.10;0.10;;;;;;;;;;5948682;24;20326;-89
2021/10/30 07:12:20;;;;;;;0.10;0.10;;;;;;;;;;5947793;24;20028;-89
2021/10/30 07:14:47;;;;;;;0.10;0.10;;;;;;;;;;5948465;24;20093;-89
2021/10/30 07:17:13;;;;;;;0.15;0.15;;;;;;;;;;5948611;24;20021;-89
2021/10/30 07:19:39;;;;;;;0.10;0.10;;;;;;;;;;5948631;24;20044;-89
2021/10/30 07:22:05;;;;;;;0.55;0.30;;;;;;;;;;5948602;24;20017;-88
2021/10/30 07:24:30;;;;;;;0.10;0.10;;;;;;;;;;5948437;24;20017;-90
2021/10/30 07:26:56;;;;;;;0.10;0.10;;;;;;;;;;5948315;24;20475;-88
2021/10/30 07:29:22;;;;;;;0.17;0.17;;;;;;;;;;5948440;24;20456;-88
2021/10/30 07:31:48;;;;;;;0.10;0.10;;;;;;;;;;5948504;24;20024;-93
2021/10/30 07:34:14;;;;;;;0.10;0.10;;;;;;;;;;5926602;24;20019;-92
2021/10/30 07:36:40;;;;;;;0.10;0.10;;;;;;;;;;5925818;24;20072;-90
2021/10/30 07:39:06;;;;;;;0.10;0.10;;;;;;;;;;5925491;24;20317;-88
2021/10/30 07:41:32;;;;;;;0.10;0.10;;;;;;;;;;5925386;24;20331;-87
2021/10/30 07:43:58;;;;;;;0.25;0.25;;;;;;;;;;5948192;24;20009;-88
2021/10/30 07:46:24;;;;;;;0.10;0.10;;;;;;;;;;5924890;24;20021;-88
2021/10/30 07:48:51;;;;;;;0.10;0.10;;;;;;;;;;5949105;24;20028;-89
2021/10/30 07:51:17;;;;;;;0.20;0.20;;;;;;;;;;5952695;24;20021;-88
2021/10/30 07:53:43;;;;;;;0.10;0.10;;;;;;;;;;5930036;24;20023;-88
2021/10/30 07:56:09;;;;;;;0.10;0.10;;;;;;;;;;5952866;24;20455;-88
2021/10/30 07:58:35;;;;;;;0.10;0.10;;;;;;;;;;5929623;24;20017;-88
2021/10/30 08:01:01;;;;;;;0.28;0.28;;;;;;;;;;5952940;24;20084;-87
2021/10/30 08:03:27;;;;;;;0.10;0.10;;;;;;;;;;5952715;24;20017;-88
2021/10/30 08:05:53;;;;;;;0.90;0.47;;;;;;;;;;5950952;24;20017;-87
2021/10/30 08:08:19;;;;;;;0.10;0.10;;;;;;;;;;5952637;24;20023;-87
2021/10/30 08:10:46;;;;;;;0.10;0.10;;;;;;;;;;5952637;24;20020;-87
2021/10/30 08:13:12;;;;;;;0.13;0.13;;;;;;;;;;5952896;24;20021;-87
2021/10/30 08:15:38;;;;;;;0.10;0.10;;;;;;;;;;5952471;24;20192;-87
2021/10/30 08:18:04;;;;;;;0.10;0.10;;;;;;;;;;5952450;24;20312;-87
2021/10/30 08:20:31;;;;;;;0.10;0.10;;;;;;;;;;5929653;24;20012;-87
2021/10/30 08:22:57;;;;;;;0.25;0.25;;;;;;;;;;5952459;24;20043;-87
2021/10/30 08:25:23;;;;;;;0.10;0.10;;;;;;;;;;5952488;24;20024;-86
2021/10/30 08:27:49;;;;;;;0.10;0.10;;;;;;;;;;5952583;24;20077;-87
2021/10/30 08:30:15;;;;;;;0.20;0.20;;;;;;;;;;5929524;24;20024;-87
2021/10/30 08:32:41;;;;;;;0.20;0.20;;;;;;;;;;5952765;24;20020;-87
2021/10/30 08:35:07;;;;;;;0.17;0.17;;;;;;;;;;5952471;24;20100;-87
2021/10/30 08:37:33;;;;;;;0.10;0.10;;;;;;;;;;5952356;24;20431;-87
2021/10/30 08:39:59;;;;;;;0.10;0.10;;;;;;;;;;5952401;24;20031;-87
2021/10/30 08:42:26;;;;;;;0.20;0.20;;;;;;;;;;5952525;24;20477;-87
2021/10/30 08:44:56;;;;;;;0.20;0.20;;;;;;;;;;5952408;24;20084;-87
2021/10/30 08:47:22;;;;;;;0.22;0.22;;;;;;;;;;5952432;24;20012;-88
2021/10/30 08:49:48;;;;;;;0.15;0.15;;;;;;;;;;5952276;24;20400;-88
2021/10/30 08:52:14;;;;;;;0.20;0.20;;;;;;;;;;5952263;24;20052;-87
2021/10/30 08:54:40;;;;;;;0.13;0.13;;;;;;;;;;5929350;24;20016;-87
2021/10/30 08:57:06;;;;;;;0.15;0.15;;;;;;;;;;5952227;24;20093;-87
2021/10/30 08:59:38;;;;;;;0.10;0.10;;;;;;;;;;5952138;24;20095;-87
2021/10/30 09:02:04;;;;;;;0.10;0.10;;;;;;;;;;5929159;24;20017;-90
2021/10/30 09:04:30;;;;;;;0.32;0.32;;;;;;;;;;5952628;24;20017;-87
2021/10/30 09:06:57;;;;;;;0.20;0.20;;;;;;;;;;5951995;24;20017;-87
2021/10/30 09:09:23;;;;;;;0.10;0.10;;;;;;;;;;5952148;24;20353;-87
2021/10/30 09:11:56;;;;;;;0.10;0.10;;;;;;;;;;5929079;24;20024;-87
2021/10/30 09:14:25;;;;;;;0.10;0.10;;;;;;;;;;5952385;24;20021;-88
2021/10/30 09:17:10;;;;;;;0.20;0.20;;;;;;;;;;5952057;24;20017;-86
2021/10/30 09:19:36;;;;;;;0.10;0.10;;;;;;;;;;5951974;24;20021;-87
2021/10/30 09:22:05;;;;;;;0.10;0.10;;;;;;;;;;5951980;24;20026;-87
2021/10/30 09:24:31;;;;;;;0.20;0.20;;;;;;;;;;5929376;24;20013;-89
2021/10/30 09:26:58;;;;;;;0.10;0.10;;;;;;;;;;5928832;24;20095;-87
2021/10/30 09:29:24;;;;;;;0.10;0.10;;;;;;;;;;5951928;24;20025;-88
2021/10/30 09:31:50;;;;;;;0.10;0.10;;;;;;;;;;5951772;24;20020;-87
2021/10/30 09:34:26;;;;;;;0.10;0.10;;;;;;;;;;5952248;24;20342;-87
2021/10/30 09:36:55;;;;;;;0.10;0.10;;;;;;;;;;5951965;24;20020;-87
2021/10/30 09:39:22;;;;;;;0.45;0.45;;;;;;;;;;5929042;24;20017;-87
2021/10/30 09:41:51;;;;;;;0.10;0.10;;;;;;;;;;5952084;24;20012;-86
2021/10/30 09:44:19;;;;;;;0.10;0.10;;;;;;;;;;5928969;24;20057;-87
2021/10/30 09:46:45;;;;;;;0.10;0.10;;;;;;;;;;5929326;24;20035;-87
2021/10/30 09:49:12;;;;;;;0.20;0.20;;;;;;;;;;5950506;24;20352;-87
2021/10/30 09:51:38;;;;;;;0.10;0.10;;;;;;;;;;5947601;24;20036;-86
2021/10/30 09:54:05;;;;;;;0.10;0.10;;;;;;;;;;5959737;24;20021;-87
2021/10/30 09:56:41;;;;;;;0.10;0.10;;;;;;;;;;5958993;24;20021;-87
2021/10/30 09:59:12;;;;;;;0.10;0.10;;;;;;;;;;5947594;24;20344;-87
2021/10/30 10:01:38;;;;;;;0.10;0.10;;;;;;;;;;5947255;24;20280;-87
2021/10/30 10:04:04;;;;;;;0.20;0.20;;;;;;;;;;5924179;24;20045;-87
2021/10/30 10:06:31;;;;;;;0.10;0.10;;;;;;;;;;5946952;24;20305;-87
2021/10/30 10:08:57;;;;;;;0.10;0.10;;;;;;;;;;5924104;24;20009;-88
2021/10/30 10:11:24;;;;;;;3.03;0.52;;;;;;;;;;5924074;24;20088;-87
2021/10/30 10:13:51;;;;;;;0.10;0.10;;;;;;;;;;5948296;24;20340;-87
2021/10/30 10:16:20;;;;;;;0.10;0.10;;;;;;;;;;5947171;24;20040;-87
2021/10/30 10:18:47;;;;;;;0.95;0.95;;;;;;;;;;5923269;24;20515;-86
2021/10/30 10:21:14;;;;;;;0.10;0.10;;;;;;;;;;5947059;24;20053;-87
2021/10/30 10:23:43;;;;;;;0.10;0.10;;;;;;;;;;5947358;24;20028;-87
2021/10/30 10:26:09;;;;;;;4.20;2.60;;;;;;;;;;5946859;24;20065;-87
2021/10/30 10:28:38;;;;;;;0.10;0.10;;;;;;;;;;5924102;24;20017;-86
2021/10/30 10:31:10;;;;;;;0.10;0.10;;;;;;;;;;5948533;24;20084;-87
2021/10/30 10:33:36;;;;;;;0.10;0.10;;;;;;;;;;5948652;24;20097;-85
2021/10/30 10:36:14;;;;;;;0.30;0.30;;;;;;;;;;5948750;24;20103;-85
2021/10/30 10:38:58;;;;;;;0.10;0.10;;;;;;;;;;5948697;24;20028;-86
2021/10/30 10:41:43;;;;;;;0.10;0.10;;;;;;;;;;5948586;24;20024;-87
2021/10/30 10:44:10;;;;;;;0.10;0.10;;;;;;;;;;5948427;24;20027;-86
2021/10/30 10:47:02;;;;;;;0.10;0.10;;;;;;;;;;5948471;24;20100;-86
2021/10/30 10:52:20;;;;;;;0.10;0.10;;;;;;;;;;5948895;24;20047;-88
2021/10/30 10:54:55;;;;;;;0.10;0.10;;;;;;;;;;5925653;24;20165;-88
2021/10/30 10:57:40;;;;;;;0.10;0.10;;;;;;;;;;5948753;24;20013;-87
2021/10/30 11:00:10;;;;;;;0.10;0.10;;;;;;;;;;5948544;24;20419;-88
2021/10/30 11:02:37;;;;;;;0.20;0.20;;;;;;;;;;5948687;24;20101;-87
2021/10/30 11:05:09;;;;;;;0.10;0.10;;;;;;;;;;5925188;24;20017;-86
2021/10/30 11:07:35;;;;;;;;;;;;;;;;;;5948612;24;20049;-87
2021/10/30 11:10:01;;;;;;;0.10;0.10;;;;;;;;;;5948548;24;19922;-87
2021/10/30 11:12:28;;;;;;;0.38;0.38;;;;;;;;;;5948625;24;20025;-87
2021/10/30 11:15:14;;;;;;;0.10;0.10;;;;;;;;;;5925392;24;20020;-87
2021/10/30 11:17:56;;;;;;;0.10;0.10;;;;;;;;;;5925389;24;20021;-86
2021/10/30 11:20:24;;;;;;;0.15;0.15;;;;;;;;;;5948489;24;20092;-87
2021/10/30 11:22:54;;;;;;;0.10;0.10;;;;;;;;;;5925838;24;20017;-87
2021/10/30 11:25:21;;;;;;;0.20;0.20;;;;;;;;;;5948498;24;20448;-87
2021/10/30 11:27:51;;;;;;;0.10;0.10;;;;;;;;;;5948385;24;20050;-87
2021/10/30 11:30:17;;;;;;;0.10;0.10;;;;;;;;;;5925267;24;20496;-87
2021/10/30 11:32:43;;;;;;;0.50;0.30;;;;;;;;;;5948337;24;20017;-87
2021/10/30 11:35:12;;;;;;;0.10;0.10;;;;;;;;;;5948704;24;20439;-87
2021/10/30 11:37:39;;;;;;;0.20;0.20;;;;;;;;;;5948338;24;20028;-86
2021/10/30 11:40:05;;;;;;;0.13;0.13;;;;;;;;;;5925504;24;20021;-87
2021/10/30 11:42:31;;;;;;;0.10;0.10;;;;;;;;;;5947999;24;20016;-88
2021/10/30 11:44:59;;;;;;;0.10;0.10;;;;;;;;;;5925367;24;20118;-87
2021/10/30 11:47:26;;;;;;;0.10;0.10;;;;;;;;;;5924970;24;20024;-89
2021/10/30 11:49:52;;;;;;;0.10;0.10;;;;;;;;;;5925244;24;20040;-87
2021/10/30 11:52:18;;;;;;;0.10;0.10;;;;;;;;;;5947977;24;20048;-88
2021/10/30 11:54:44;;;;;;;0.10;0.10;;;;;;;;;;5948128;24;20027;-87
2021/10/30 11:57:10;;;;;;;0.20;0.20;;;;;;;;;;5948398;24;20064;-89
2021/10/30 11:59:43;;;;;;;0.10;0.10;;;;;;;;;;5946421;24;20077;-88
2021/10/30 12:02:13;;;;;;;0.10;0.10;;;;;;;;;;5924858;24;20024;-88
2021/10/30 12:04:39;;;;;;;0.10;0.10;;;;;;;;;;5947978;24;20021;-86
2021/10/30 12:07:06;;;;;;;0.10;0.10;;;;;;;;;;5947849;24;20013;-86
2021/10/30 12:09:32;;;;;;;0.20;0.20;;;;;;;;;;5948155;24;20137;-86
2021/10/30 12:11:59;;;;;;;0.22;0.22;;;;;;;;;;5947767;24;20073;-86
2021/10/30 12:14:29;;;;;;;0.10;0.10;;;;;;;;;;5947808;24;20170;-85
2021/10/30 12:17:05;;;;;;;0.10;0.10;;;;;;;;;;5948034;24;20021;-86
2021/10/30 12:19:31;;;;;;;0.10;0.10;;;;;;;;;;5947690;24;20412;-85
2021/10/30 12:22:04;;;;;;;0.10;0.10;;;;;;;;;;5947810;24;20017;-88
2021/10/30 12:24:30;;;;;;;0.10;0.10;;;;;;;;;;5948138;24;20017;-87
2021/10/30 12:26:57;;;;;;;1.52;1.13;;;;;;;;;;5948097;24;20155;-86
2021/10/30 12:29:27;;;;;;;0.10;0.10;;;;;;;;;;5925051;24;20029;-87
2021/10/30 12:32:08;;;;;;;0.10;0.10;;;;;;;;;;5924346;24;20085;-86
2021/10/30 12:34:39;;;;;;;0.17;0.17;;;;;;;;;;5948017;24;20017;-86
2021/10/30 12:37:06;;;;;;;0.32;0.32;;;;;;;;;;5948065;24;20024;-86
2021/10/30 12:39:32;;;;;;;0.10;0.10;;;;;;;;;;5947792;24;20021;-87
2021/10/30 12:42:02;;;;;;;0.25;0.25;;;;;;;;;;5948045;24;20024;-87
2021/10/30 12:44:30;;;;;;;0.30;0.30;;;;;;;;;;5948168;24;20381;-86
2021/10/30 12:46:57;;;;;;;0.13;0.13;;;;;;;;;;5924531;24;20017;-87
2021/10/30 12:49:27;;;;;;;0.10;0.10;;;;;;;;;;5947636;24;20060;-87
2021/10/30 12:51:59;;;;;;;0.10;0.10;;;;;;;;;;5947797;24;20052;-87
2021/10/30 12:54:26;;;;;;;0.10;0.10;;;;;;;;;;5947834;24;20017;-87
2021/10/30 12:56:52;;;;;;;0.10;0.10;;;;;;;;;;5947842;24;20070;-86
2021/10/30 12:59:23;;;;;;;0.22;0.22;;;;;;;;;;5947576;24;20073;-86
2021/10/30 13:01:53;;;;;;;0.10;0.10;;;;;;;;;;5946901;24;20017;-86
2021/10/30 13:04:26;;;;;;;0.10;0.10;;;;;;;;;;5924438;24;20537;-86
2021/10/30 13:06:57;;;;;;;0.10;0.10;;;;;;;;;;5947630;24;20109;-87
2021/10/30 13:09:25;;;;;;;0.20;0.20;;;;;;;;;;5947584;24;20422;-85
2021/10/30 13:11:51;;;;;;;0.13;0.13;;;;;;;;;;5924201;24;20063;-86
2021/10/30 13:14:17;;;;;;;0.10;0.10;;;;;;;;;;5947639;24;20352;-85
2021/10/30 13:16:43;;;;;;;0.10;0.10;;;;;;;;;;5947462;24;20021;-85
2021/10/30 13:19:09;;;;;;;0.80;0.30;;;;;;;;;;5947557;24;20610;-86
2021/10/30 13:21:35;;;;;;;0.13;0.13;;;;;;;;;;5947614;24;20424;-86
2021/10/30 13:24:01;;;;;;;0.10;0.10;;;;;;;;;;5947576;24;20193;-86
2021/10/30 13:26:28;;;;;;;0.20;0.20;;;;;;;;;;5924654;24;20289;-86
2021/10/30 13:28:54;;;;;;;0.10;0.10;;;;;;;;;;5947374;24;20097;-85
2021/10/30 13:31:21;;;;;;;0.10;0.10;;;;;;;;;;5947457;24;20134;-86
2021/10/30 13:33:47;;;;;;;0.10;0.10;;;;;;;;;;5947153;24;20024;-86
2021/10/30 13:36:13;;;;;;;0.10;0.10;;;;;;;;;;5924676;24;20013;-86
2021/10/30 13:38:39;;;;;;;0.20;0.20;;;;;;;;;;5947552;24;20078;-86
2021/10/30 13:41:06;;;;;;;0.10;0.10;;;;;;;;;;5947182;24;20017;-85
2021/10/30 13:43:32;;;;;;;0.10;0.10;;;;;;;;;;5946526;24;20096;-86
2021/10/30 13:45:58;;;;;;;0.20;0.20;;;;;;;;;;5947189;24;20017;-86
2021/10/30 13:48:24;;;;;;;0.10;0.10;;;;;;;;;;5947485;24;20089;-86
2021/10/30 13:50:50;;;;;;;0.10;0.10;;;;;;;;;;5947275;24;20025;-86
2021/10/30 13:53:16;;;;;;;0.30;0.30;;;;;;;;;;5947469;24;20027;-86
2021/10/30 13:55:42;;;;;;;0.10;0.10;;;;;;;;;;5947361;24;20274;-86
2021/10/30 13:58:08;;;;;;;0.10;0.10;;;;;;;;;;5947370;24;20017;-86
2021/10/30 14:00:34;;;;;;;0.10;0.10;;;;;;;;;;5947246;24;20022;-85
2021/10/30 14:03:01;;;;;;;0.10;0.10;;;;;;;;;;5948641;24;20024;-86
2021/10/30 14:05:27;;;;;;;0.10;0.10;;;;;;;;;;5948559;24;20069;-86
2021/10/30 14:07:53;;;;;;;0.10;0.10;;;;;;;;;;5949223;24;20076;-85
2021/10/30 14:10:19;;;;;;;0.10;0.10;;;;;;;;;;5926108;24;20076;-85
2021/10/30 14:12:45;;;;;;;0.10;0.10;;;;;;;;;;5949129;24;20017;-85
2021/10/30 14:15:11;;;;;;;0.10;0.10;;;;;;;;;;5949070;24;20073;-86
2021/10/30 14:17:37;;;;;;;0.10;0.10;;;;;;;;;;5949226;24;20017;-87
2021/10/30 14:20:04;;;;;;;0.10;0.10;;;;;;;;;;5949238;24;20020;-86
2021/10/30 14:22:30;;;;;;;0.10;0.10;;;;;;;;;;5949283;24;20023;-90
2021/10/30 14:24:56;;;;;;;0.10;0.10;;;;;;;;;;5926185;24;20087;-93
2021/10/30 14:27:22;;;;;;;0.10;0.10;;;;;;;;;;5949535;24;20009;-93
2021/10/30 14:29:48;;;;;;;0.10;0.10;;;;;;;;;;5948980;24;20425;-87
2021/10/30 14:32:14;;;;;;;0.10;0.10;;;;;;;;;;5949191;24;20118;-87
2021/10/30 14:34:40;;;;;;;0.10;0.10;;;;;;;;;;5949052;24;20017;-87
2021/10/30 14:37:09;;;;;;;0.10;0.10;;;;;;;;;;5926143;24;20092;-87
2021/10/30 14:39:35;;;;;;;0.10;0.10;;;;;;;;;;5926152;24;20024;-89
2021/10/30 14:42:01;;;;;;;0.10;0.10;;;;;;;;;;5949358;24;20013;-88
2021/10/30 14:44:30;;;;;;;0.20;0.20;;;;;;;;;;5926002;24;20013;-88